Time;durP1;ratioP1;P1;durP2;ratioP2;P2;SDS_P1;SDS_P2;PMS_P1;PMS_P2;Temp;Humidity;BMP_temperature;BMP_pressure;BME280_temperature;BME280_humidity;BME280_pressure;Samples;Min_cycle;Max_cycle;Signal;HPM_P1;HPM_P2
2024/01/02 00:02:04;;;;;;;;;;;;;;;-140.72;0.00;52325.94;5079079;28;19923;-71
2024/01/02 00:04:29;;;;;;;;;;;;;;;-140.72;0.00;52332.03;5095625;28;19916;-71
2024/01/02 00:06:55;;;;;;;;;;;;;;;-140.72;0.00;52275.19;5095021;28;20117;-71
2024/01/02 00:09:20;;;;;;;;;;;;;;;-140.72;0.00;52305.63;5094822;28;19920;-72
2024/01/02 00:11:45;;;;;;;;;;;;;;;-140.72;0.00;52317.81;5075810;28;20408;-71
2024/01/02 00:14:10;;;;;;;;;;;;;;;-140.72;0.00;52281.28;5084546;28;20373;-72
2024/01/02 00:16:35;;;;;;;;;;;;;;;-140.72;0.00;52283.31;5081005;28;20445;-71
2024/01/02 00:19:01;;;;;;;;;;;;;;;-140.72;0.00;52277.22;5087251;28;19999;-71
2024/01/02 00:21:26;;;;;;;;;;;;;;;-140.72;0.00;52279.25;5082123;28;20055;-72
2024/01/02 00:23:51;;;;;;;;;;;;;;;-140.72;0.00;52285.34;5086546;28;20010;-72
2024/01/02 00:26:16;;;;;;;;;;;;;;;-140.72;0.00;52269.13;5087784;28;19916;-72
2024/01/02 00:28:41;;;;;;;;;;;;;;;-140.72;0.00;52267.09;5079098;28;19916;-71
2024/01/02 00:31:07;;;;;;;;;;;;;;;-140.72;0.00;52291.44;5089251;28;19923;-71
2024/01/02 00:33:33;;;;;;;;;;;;;;;-140.72;0.00;52317.81;5101085;28;19939;-71
2024/01/02 00:35:58;;;;;;;;;;;;;;;-140.72;0.00;52309.69;5086511;28;20277;-71
2024/01/02 00:38:27;;;;;;;;;;;;;;;-140.72;0.00;52277.22;5086602;28;19916;-71
2024/01/02 00:40:52;;;;;;;;;;;;;;;-140.72;0.00;52277.22;5092054;28;19917;-71
2024/01/02 00:43:18;;;;;;;;;;;;;;;-140.72;0.00;52303.59;5100131;28;19924;-72
2024/01/02 00:45:43;;;;;;;;;;;;;;;-140.72;0.00;52289.41;5095012;28;20084;-71
2024/01/02 00:48:08;;;;;;;;;;;;;;;-140.72;0.00;52291.44;5090924;28;20014;-71
2024/01/02 00:50:34;;;;;;;;;;;;;;;-140.72;0.00;52269.13;5090438;28;20013;-71
2024/01/02 00:53:03;;;;;;;;;;;;;;;-140.72;0.00;52283.31;5091199;28;19924;-71
2024/01/02 00:55:28;;;;;;;;;;;;;;;-140.72;0.00;52269.13;5086251;28;20007;-71
2024/01/02 00:57:53;;;;;;;;;;;;;;;-140.72;0.00;52228.53;5090004;28;19995;-71
2024/01/02 01:00:19;;;;;;;;;;;;;;;-140.72;0.00;52269.13;5086798;28;20015;-71
2024/01/02 01:02:44;;;;;;;;;;;;;;;-140.72;0.00;52285.34;5090852;28;19916;-71
2024/01/02 01:05:09;;;;;;;;;;;;;;;-140.72;0.00;52293.47;5097139;28;19920;-72
2024/01/02 01:07:35;;;;;;;;;;;;;;;-140.72;0.00;52301.59;5086162;28;20285;-71
2024/01/02 01:10:00;;;;;;;;;;;;;;;-140.72;0.00;52269.13;5079551;28;20333;-71
2024/01/02 01:12:25;;;;;;;;;;;;;;;-140.72;0.00;52303.59;5098907;28;19920;-71
2024/01/02 01:14:51;;;;;;;;;;;;;;;-140.72;0.00;52293.47;5091016;28;20007;-71
2024/01/02 01:17:16;;;;;;;;;;;;;;;-140.72;0.00;52289.41;5068288;28;19921;-71
2024/01/02 01:19:41;;;;;;;;;;;;;;;-140.72;0.00;52303.59;5094618;28;20337;-72
2024/01/02 01:22:07;;;;;;;;;;;;;;;-140.72;0.00;52301.59;5083295;28;19972;-71
2024/01/02 01:24:32;;;;;;;;;;;;;;;-140.72;0.00;52313.75;5097234;28;19916;-71
2024/01/02 01:26:58;;;;;;;;;;;;;;;-140.72;0.00;52293.47;5110809;28;19931;-71
2024/01/02 01:29:24;;;;;;;;;;;;;;;-140.72;0.00;52297.53;5098509;28;19919;-71
2024/01/02 01:31:49;;;;;;;;;;;;;;;-140.72;0.00;52309.69;5091234;28;20330;-70
2024/01/02 01:34:15;;;;;;;;;;;;;;;-140.72;0.00;52307.66;5089934;28;20385;-70
2024/01/02 01:36:40;;;;;;;;;;;;;;;-140.72;0.00;52299.56;5089773;28;19965;-70
2024/01/02 01:39:06;;;;;;;;;;;;;;;-140.72;0.00;52295.50;5082559;28;19969;-71
2024/01/02 01:41:31;;;;;;;;;;;;;;;-140.72;0.00;52293.47;5094561;28;19920;-70
2024/01/02 01:43:57;;;;;;;;;;;;;;;-140.72;0.00;52323.91;5092755;28;19974;-70
2024/01/02 01:46:23;;;;;;;;;;;;;;;-140.72;0.00;52346.22;5080349;28;19943;-70
2024/01/02 01:48:49;;;;;;;;;;;;;;;-140.72;0.00;52285.34;5089837;28;19931;-71
2024/01/02 01:51:14;;;;;;;;;;;;;;;-140.72;0.00;52285.34;5090990;28;20026;-71
2024/01/02 01:53:41;;;;;;;;;;;;;;;-140.72;0.00;52267.09;5104501;28;20400;-71
2024/01/02 01:56:07;;;;;;;;;;;;;;;-140.72;0.00;52267.09;5096270;28;19966;-71
2024/01/02 01:58:33;;;;;;;;;;;;;;;-140.72;0.00;52232.59;5102277;28;19917;-71
2024/01/02 02:00:58;;;;;;;;;;;;;;;-140.72;0.00;52309.69;5088258;28;19980;-71
2024/01/02 02:03:25;;;;;;;;;;;;;;;-140.72;0.00;52291.44;5107788;28;19916;-71
2024/01/02 02:05:50;;;;;;;;;;;;;;;-140.72;0.00;52297.53;5095790;28;19928;-71
2024/01/02 02:08:15;;;;;;;;;;;;;;;-140.72;0.00;52263.03;5101376;28;20352;-71
2024/01/02 02:10:41;;;;;;;;;;;;;;;-140.72;0.00;52289.41;5079914;28;19916;-71
2024/01/02 02:13:06;;;;;;;;;;;;;;;-140.72;0.00;52246.78;5094508;28;19969;-71
2024/01/02 02:15:31;;;;;;;;;;;;;;;-140.72;0.00;52252.88;5091325;28;20387;-71
2024/01/02 02:17:57;;;;;;;;;;;;;;;-140.72;0.00;52305.63;5087784;28;19981;-71
2024/01/02 02:20:22;;;;;;;;;;;;;;;-140.72;0.00;52334.03;5091580;28;19990;-71
2024/01/02 02:22:51;;;;;;;;;;;;;;;-140.72;0.00;52277.22;5094099;28;20015;-71
2024/01/02 02:25:17;;;;;;;;;;;;;;;-140.72;0.00;52287.38;5085860;28;19916;-71
2024/01/02 02:27:43;;;;;;;;;;;;;;;-140.72;0.00;52295.50;5092301;28;20387;-71
2024/01/02 02:30:08;;;;;;;;;;;;;;;-140.72;0.00;52325.94;5093489;28;19916;-70
2024/01/02 02:32:33;;;;;;;;;;;;;;;-140.72;0.00;52299.56;5093096;28;20345;-71
2024/01/02 02:34:58;;;;;;;;;;;;;;;-140.72;0.00;52246.78;5099852;28;19943;-71
2024/01/02 02:37:24;;;;;;;;;;;;;;;-140.72;0.00;52293.47;5100445;28;20313;-71
2024/01/02 02:39:49;;;;;;;;;;;;;;;-140.72;0.00;52273.19;5081903;28;19924;-71
2024/01/02 02:42:14;;;;;;;;;;;;;;;-140.72;0.00;52289.41;5083195;28;20358;-70
2024/01/02 02:44:42;;;;;;;;;;;;;;;-140.72;0.00;52325.94;5089801;28;19927;-70
2024/01/02 02:47:08;;;;;;;;;;;;;;;-140.72;0.00;52305.63;5076885;28;19920;-70
2024/01/02 02:49:33;;;;;;;;;;;;;;;-140.72;0.00;52269.13;5094402;28;20390;-70
2024/01/02 02:51:58;;;;;;;;;;;;;;;-140.72;0.00;52291.44;5087742;28;19935;-70
2024/01/02 02:54:24;;;;;;;;;;;;;;;-140.72;0.00;52277.22;5105109;28;19922;-70
2024/01/02 02:56:49;;;;;;;;;;;;;;;-140.72;0.00;52275.19;5094164;28;19923;-70
2024/01/02 02:59:14;;;;;;;;;;;;;;;-140.72;0.00;52325.94;5098783;28;19920;-71
2024/01/02 03:01:40;;;;;;;;;;;;;;;-140.72;0.00;52291.44;5092241;28;19920;-71
2024/01/02 03:04:05;;;;;;;;;;;;;;;-140.72;0.00;52303.59;5084178;28;19977;-71
2024/01/02 03:06:30;;;;;;;;;;;;;;;-140.72;0.00;52273.19;5088239;28;19916;-71
2024/01/02 03:08:55;;;;;;;;;;;;;;;-140.72;0.00;52301.59;5093885;28;19977;-70
2024/01/02 03:11:21;;;;;;;;;;;;;;;-140.72;0.00;52285.34;5104474;28;19959;-70
2024/01/02 03:13:47;;;;;;;;;;;;;;;-140.72;0.00;52299.56;5107363;28;19916;-70
2024/01/02 03:16:12;;;;;;;;;;;;;;;-140.72;0.00;52283.31;5089746;28;19985;-71
2024/01/02 03:18:38;;;;;;;;;;;;;;;-140.72;0.00;52299.56;5075479;28;20106;-71
2024/01/02 03:21:03;;;;;;;;;;;;;;;-140.72;0.00;52273.19;5079070;28;19962;-71
2024/01/02 03:23:28;;;;;;;;;;;;;;;-140.72;0.00;52287.38;5075436;28;19916;-71
2024/01/02 03:25:54;;;;;;;;;;;;;;;-140.72;0.00;52321.88;5092065;28;20271;-71
2024/01/02 03:28:19;;;;;;;;;;;;;;;-140.72;0.00;52303.59;5105799;28;19926;-71
2024/01/02 03:30:44;;;;;;;;;;;;;;;-140.72;0.00;52265.06;5092235;28;19927;-71
2024/01/02 03:33:09;;;;;;;;;;;;;;;-140.72;0.00;52297.53;5091069;28;19916;-71
2024/01/02 03:35:35;;;;;;;;;;;;;;;-140.72;0.00;52256.94;5103078;28;20335;-71
2024/01/02 03:38:00;;;;;;;;;;;;;;;-140.72;0.00;52263.03;5098420;28;19926;-71
2024/01/02 03:40:25;;;;;;;;;;;;;;;-140.72;0.00;52269.13;5086375;28;19923;-71
2024/01/02 03:42:51;;;;;;;;;;;;;;;-140.72;0.00;52248.81;5088602;28;20354;-72
2024/01/02 03:45:16;;;;;;;;;;;;;;;-140.72;0.00;52252.88;5098757;28;20398;-71
2024/01/02 03:47:42;;;;;;;;;;;;;;;-140.72;0.00;52279.25;5078182;28;20382;-71
2024/01/02 03:50:07;;;;;;;;;;;;;;;-140.72;0.00;52287.38;5086897;28;20019;-71
2024/01/02 03:52:32;;;;;;;;;;;;;;;-140.72;0.00;52275.19;5071226;28;19920;-71
2024/01/02 03:54:57;;;;;;;;;;;;;;;-140.72;0.00;52222.44;5064069;28;19927;-71
2024/01/02 03:57:23;;;;;;;;;;;;;;;-140.72;0.00;52240.72;5093660;28;19924;-71
2024/01/02 03:59:48;;;;;;;;;;;;;;;-140.72;0.00;52252.88;5082426;28;19920;-71
2024/01/02 04:02:13;;;;;;;;;;;;;;;-140.72;0.00;52261.00;5068725;28;19916;-71
2024/01/02 04:04:39;;;;;;;;;;;;;;;-140.72;0.00;52230.56;5063508;28;19926;-70
2024/01/02 04:07:04;;;;;;;;;;;;;;;-140.72;0.00;52250.84;5103453;28;20285;-71
2024/01/02 04:09:29;;;;;;;;;;;;;;;-140.72;0.00;52230.56;5092908;28;20290;-71
2024/01/02 04:11:54;;;;;;;;;;;;;;;-140.72;0.00;52212.31;5104963;28;20424;-71
2024/01/02 04:14:19;;;;;;;;;;;;;;;-140.72;0.00;52240.72;5092120;28;19923;-71
2024/01/02 04:16:45;;;;;;;;;;;;;;;-140.72;0.00;52240.72;5091510;28;19932;-71
2024/01/02 04:19:10;;;;;;;;;;;;;;;-140.72;0.00;52242.75;5081990;28;19924;-71
2024/01/02 04:21:35;;;;;;;;;;;;;;;-140.72;0.00;52228.53;5086214;28;20011;-71
2024/01/02 04:24:00;;;;;;;;;;;;;;;-140.72;0.00;52240.72;5101234;28;20019;-72
2024/01/02 04:26:26;;;;;;;;;;;;;;;-140.72;0.00;52230.56;5091550;28;19936;-71
2024/01/02 04:28:51;;;;;;;;;;;;;;;-140.72;0.00;52269.13;5088334;28;19916;-71
2024/01/02 04:31:16;;;;;;;;;;;;;;;-140.72;0.00;52252.88;5087062;28;19916;-71
2024/01/02 04:33:42;;;;;;;;;;;;;;;-140.72;0.00;52222.44;5094571;28;20415;-72
2024/01/02 04:36:07;;;;;;;;;;;;;;;-140.72;0.00;52244.78;5071571;28;19924;-71
2024/01/02 04:38:33;;;;;;;;;;;;;;;-140.72;0.00;52252.88;5090818;28;19916;-71
2024/01/02 04:40:59;;;;;;;;;;;;;;;-140.72;0.00;52263.03;5090909;28;19916;-71
2024/01/02 04:43:25;;;;;;;;;;;;;;;-140.72;0.00;52204.19;5102813;28;19998;-71
2024/01/02 04:45:51;;;;;;;;;;;;;;;-140.72;0.00;52226.50;5091659;28;19959;-71
2024/01/02 04:48:17;;;;;;;;;;;;;;;-140.72;0.00;52222.44;5094675;28;19920;-71
2024/01/02 04:50:42;;;;;;;;;;;;;;;-140.72;0.00;52256.94;5101107;28;19917;-71
2024/01/02 04:53:07;;;;;;;;;;;;;;;-140.72;0.00;52220.41;5099969;28;19920;-71
2024/01/02 04:55:32;;;;;;;;;;;;;;;-140.72;0.00;52196.06;5113777;28;19916;-71
2024/01/02 04:58:00;;;;;;;;;;;;;;;-140.72;0.00;52212.31;5111436;28;19923;-71
2024/01/02 05:00:26;;;;;;;;;;;;;;;-140.72;0.00;52222.44;5094244;28;19920;-71
2024/01/02 05:02:51;;;;;;;;;;;;;;;-140.72;0.00;52224.47;5093857;28;19920;-71
2024/01/02 05:05:16;;;;;;;;;;;;;;;-140.72;0.00;52244.78;5092193;28;19916;-71
2024/01/02 05:07:41;;;;;;;;;;;;;;;-140.72;0.00;52230.56;5113327;28;20261;-71
2024/01/02 05:10:07;;;;;;;;;;;;;;;-140.72;0.00;52222.44;5084166;28;20464;-72
2024/01/02 05:12:32;;;;;;;;;;;;;;;-140.72;0.00;52185.94;5085133;28;19916;-72
2024/01/02 05:14:57;;;;;;;;;;;;;;;-140.72;0.00;52200.13;5095348;28;19916;-71
2024/01/02 05:17:22;;;;;;;;;;;;;;;-140.72;0.00;52248.81;5088287;28;19927;-71
2024/01/02 05:19:47;;;;;;;;;;;;;;;-140.72;0.00;52198.09;5088021;28;19966;-72
2024/01/02 05:22:13;;;;;;;;;;;;;;;-140.72;0.00;52214.34;5084952;28;19917;-72
2024/01/02 05:24:38;;;;;;;;;;;;;;;-140.72;0.00;52214.34;5065524;28;19961;-72
2024/01/02 05:27:03;;;;;;;;;;;;;;;-140.72;0.00;52228.53;5097449;28;19920;-72
2024/01/02 05:29:29;;;;;;;;;;;;;;;-140.72;0.00;52169.69;5084498;28;19920;-72
2024/01/02 05:31:54;;;;;;;;;;;;;;;-140.72;0.00;52244.78;5095471;28;19920;-72
2024/01/02 05:34:19;;;;;;;;;;;;;;;-140.72;0.00;52214.34;5085224;28;19955;-72
2024/01/02 05:36:46;;;;;;;;;;;;;;;-140.72;0.00;52200.13;5074911;28;19916;-74
2024/01/02 05:39:11;;;;;;;;;;;;;;;-140.72;0.00;52163.59;5095234;28;19924;-73
2024/01/02 05:41:36;;;;;;;;;;;;;;;-140.72;0.00;52208.25;5093803;28;19922;-73
2024/01/02 05:44:01;;;;;;;;;;;;;;;-140.72;0.00;52161.56;5094399;28;19916;-73
2024/01/02 05:46:27;;;;;;;;;;;;;;;-140.72;0.00;52214.34;5109059;28;19974;-76
2024/01/02 05:48:52;;;;;;;;;;;;;;;-140.72;0.00;52242.75;5100216;28;20346;-74
2024/01/02 05:51:17;;;;;;;;;;;;;;;-140.72;0.00;52189.97;5085065;28;20339;-75
2024/01/02 05:53:43;;;;;;;;;;;;;;;-140.72;0.00;52214.34;5113536;28;20297;-73
2024/01/02 05:56:11;;;;;;;;;;;;;;;-140.72;0.00;52185.94;5095945;28;20503;-75
2024/01/02 05:58:36;;;;;;;;;;;;;;;-140.72;0.00;52167.66;5090796;28;19920;-72
2024/01/02 06:01:02;;;;;;;;;;;;;;;-140.72;0.00;52173.75;5090852;28;19931;-73
2024/01/02 06:03:27;;;;;;;;;;;;;;;-140.72;0.00;52157.53;5094182;28;20416;-73
2024/01/02 06:05:52;;;;;;;;;;;;;;;-140.72;0.00;52125.06;5104919;28;19927;-73
2024/01/02 06:08:17;;;;;;;;;;;;;;;-140.72;0.00;52151.44;5084004;28;19921;-74
2024/01/02 06:10:42;;;;;;;;;;;;;;;-140.72;0.00;52177.81;5082963;28;19920;-73
2024/01/02 06:13:08;;;;;;;;;;;;;;;-140.72;0.00;52141.28;5088551;28;20385;-73
2024/01/02 06:15:33;;;;;;;;;;;;;;;-140.72;0.00;52161.56;5094866;28;19916;-75
2024/01/02 06:17:58;;;;;;;;;;;;;;;-140.72;0.00;52183.91;5077546;28;19920;-73
2024/01/02 06:20:23;;;;;;;;;;;;;;;-140.72;0.00;52198.09;5095651;28;19920;-73
2024/01/02 06:22:49;;;;;;;;;;;;;;;-140.72;0.00;52185.94;5082922;28;19924;-75
2024/01/02 06:25:14;;;;;;;;;;;;;;;-140.72;0.00;52143.31;5105029;28;19928;-73
2024/01/02 06:27:40;;;;;;;;;;;;;;;-140.72;0.00;52187.97;5102528;28;19920;-73
2024/01/02 06:30:05;;;;;;;;;;;;;;;-140.72;0.00;52192.00;5091572;28;19951;-73
2024/01/02 06:32:31;;;;;;;;;;;;;;;-140.72;0.00;52171.72;5096988;28;20250;-73
2024/01/02 06:34:56;;;;;;;;;;;;;;;-140.72;0.00;52155.50;5093992;28;19936;-73
2024/01/02 06:37:23;;;;;;;;;;;;;;;-140.72;0.00;52206.22;5095052;28;19922;-73
2024/01/02 06:39:49;;;;;;;;;;;;;;;-140.72;0.00;52173.75;5110753;28;19927;-73
2024/01/02 06:42:14;;;;;;;;;;;;;;;-140.72;0.00;52202.16;5093864;28;19924;-73
2024/01/02 06:44:39;;;;;;;;;;;;;;;-140.72;0.00;52135.19;5089338;28;19924;-73
2024/01/02 06:47:04;;;;;;;;;;;;;;;-140.72;0.00;52167.66;5095763;28;19916;-73
2024/01/02 06:49:29;;;;;;;;;;;;;;;-140.72;0.00;52196.06;5092450;28;20010;-73
2024/01/02 06:51:55;;;;;;;;;;;;;;;-140.72;0.00;52187.97;5088768;28;19971;-73
2024/01/02 06:54:20;;;;;;;;;;;;;;;-140.72;0.00;52159.56;5084690;28;19916;-73
2024/01/02 06:56:45;;;;;;;;;;;;;;;-140.72;0.00;52218.38;5097368;28;19920;-73
2024/01/02 06:59:10;;;;;;;;;;;;;;;-140.72;0.00;52171.72;5096337;28;19931;-73
2024/01/02 07:01:36;;;;;;;;;;;;;;;-140.72;0.00;52167.66;5073671;28;20041;-73
2024/01/02 07:04:01;;;;;;;;;;;;;;;-140.72;0.00;52143.31;5102239;28;20297;-73
2024/01/02 07:06:26;;;;;;;;;;;;;;;-140.72;0.00;52192.00;5082071;28;20058;-73
2024/01/02 07:08:52;;;;;;;;;;;;;;;-140.72;0.00;52167.66;5095749;28;19957;-73
2024/01/02 07:11:17;;;;;;;;;;;;;;;-140.72;0.00;52194.03;5096081;28;19955;-73
2024/01/02 07:13:42;;;;;;;;;;;;;;;-140.72;0.00;52167.66;5100036;28;19920;-74
2024/01/02 07:16:08;;;;;;;;;;;;;;;-140.72;0.00;52183.91;5092628;28;20018;-74
2024/01/02 07:18:33;;;;;;;;;;;;;;;-140.72;0.00;52183.91;5082112;28;20292;-75
2024/01/02 07:20:58;;;;;;;;;;;;;;;-140.72;0.00;52196.06;5100626;28;19915;-75
2024/01/02 07:23:23;;;;;;;;;;;;;;;-140.72;0.00;52157.53;5078483;28;20083;-76
2024/01/02 07:25:49;;;;;;;;;;;;;;;-140.72;0.00;52200.13;5090154;28;20018;-73
2024/01/02 07:28:14;;;;;;;;;;;;;;;-140.72;0.00;52224.47;5061647;28;19920;-72
2024/01/02 07:30:39;;;;;;;;;;;;;;;-140.72;0.00;52230.56;5083914;28;19916;-73
2024/01/02 07:33:04;;;;;;;;;;;;;;;-140.72;0.00;52151.44;5091384;28;19922;-73
2024/01/02 07:35:30;;;;;;;;;;;;;;;-140.72;0.00;52171.72;5085526;28;20057;-73
2024/01/02 07:37:55;;;;;;;;;;;;;;;-140.72;0.00;52155.50;5077142;28;20282;-73
2024/01/02 07:40:20;;;;;;;;;;;;;;;-140.72;0.00;52153.47;5090571;28;19916;-73
2024/01/02 07:42:45;;;;;;;;;;;;;;;-140.72;0.00;52214.34;5080157;28;19993;-73
2024/01/02 07:45:10;;;;;;;;;;;;;;;-140.72;0.00;52155.50;5086777;28;20176;-73
2024/01/02 07:47:36;;;;;;;;;;;;;;;-140.72;0.00;52149.41;5072271;28;19935;-73
2024/01/02 07:50:04;;;;;;;;;;;;;;;-140.72;0.00;52112.88;5070611;28;19923;-73
2024/01/02 07:52:29;;;;;;;;;;;;;;;-140.72;0.00;52171.72;5081126;28;19956;-73
2024/01/02 07:54:55;;;;;;;;;;;;;;;-140.72;0.00;52147.38;5080144;28;20012;-73
2024/01/02 07:57:20;;;;;;;;;;;;;;;-140.72;0.00;52080.41;5076638;28;19920;-73
2024/01/02 07:59:45;;;;;;;;;;;;;;;-140.72;0.00;52151.44;5090248;28;20239;-73
2024/01/02 08:02:10;;;;;;;;;;;;;;;-140.72;0.00;52129.13;5061519;28;19924;-73
2024/01/02 08:04:35;;;;;;;;;;;;;;;-140.72;0.00;52151.44;5061469;28;20301;-73
2024/01/02 08:07:01;;;;;;;;;;;;;;;-140.72;0.00;52145.34;5076099;28;19973;-73
2024/01/02 08:09:27;;;;;;;;;;;;;;;-140.72;0.00;52086.50;5075686;28;19924;-73
2024/01/02 08:11:52;;;;;;;;;;;;;;;-140.72;0.00;52175.78;5083419;28;19927;-73
2024/01/02 08:14:17;;;;;;;;;;;;;;;-140.72;0.00;52137.22;5077606;28;19920;-73
2024/01/02 08:16:42;;;;;;;;;;;;;;;-140.72;0.00;52189.97;5090652;28;19916;-73
2024/01/02 08:19:08;;;;;;;;;;;;;;;-140.72;0.00;52143.31;5091005;28;19971;-73
2024/01/02 08:21:33;;;;;;;;;;;;;;;-140.72;0.00;52127.09;5075433;28;19920;-73
2024/01/02 08:23:58;;;;;;;;;;;;;;;-140.72;0.00;52149.41;5102943;28;20002;-73
2024/01/02 08:26:23;;;;;;;;;;;;;;;-140.72;0.00;52163.59;5084458;28;20065;-73
2024/01/02 08:28:49;;;;;;;;;;;;;;;-140.72;0.00;52106.78;5089242;28;20341;-73
2024/01/02 08:31:14;;;;;;;;;;;;;;;-140.72;0.00;52145.34;5078748;28;19924;-73
2024/01/02 08:33:39;;;;;;;;;;;;;;;-140.72;0.00;52088.53;5092969;28;19920;-73
2024/01/02 08:36:06;;;;;;;;;;;;;;;-140.72;0.00;52129.13;5092255;28;20022;-73
2024/01/02 08:38:31;;;;;;;;;;;;;;;-140.72;0.00;52143.31;5091221;28;20386;-73
2024/01/02 08:40:57;;;;;;;;;;;;;;;-140.72;0.00;52112.88;5085079;28;19942;-73
2024/01/02 08:43:22;;;;;;;;;;;;;;;-140.72;0.00;52141.28;5079311;28;19924;-73
2024/01/02 08:45:47;;;;;;;;;;;;;;;-140.72;0.00;52198.09;5096621;28;19926;-73
2024/01/02 08:48:13;;;;;;;;;;;;;;;-140.72;0.00;52100.72;5095522;28;19923;-72
2024/01/02 08:50:42;;;;;;;;;;;;;;;-140.72;0.00;52141.28;5095923;28;20393;-74
2024/01/02 08:53:11;;;;;;;;;;;;;;;-140.72;0.00;52106.78;5086419;28;19921;-72
2024/01/02 08:55:36;;;;;;;;;;;;;;;-140.72;0.00;52145.34;5083948;28;20345;-72
2024/01/02 08:58:02;;;;;;;;;;;;;;;-140.72;0.00;52147.38;5080019;28;19917;-72
2024/01/02 09:00:28;;;;;;;;;;;;;;;-140.72;0.00;52161.56;5077745;28;19977;-72
2024/01/02 09:02:53;;;;;;;;;;;;;;;-140.72;0.00;52163.59;5082635;28;19966;-72
2024/01/02 09:05:18;;;;;;;;;;;;;;;-140.72;0.00;52189.97;5095682;28;19963;-72
2024/01/02 09:07:46;;;;;;;;;;;;;;;-140.72;0.00;52108.81;5077476;28;19955;-73
2024/01/02 09:10:12;;;;;;;;;;;;;;;-140.72;0.00;52153.47;5097362;28;19921;-73
2024/01/02 09:12:37;;;;;;;;;;;;;;;-140.72;0.00;52218.38;5086979;28;20006;-73
2024/01/02 09:15:02;;;;;;;;;;;;;;;-140.72;0.00;52145.34;5107139;28;20010;-72
2024/01/02 09:17:27;;;;;;;;;;;;;;;-140.72;0.00;52143.31;5088670;28;19923;-73
2024/01/02 09:19:53;;;;;;;;;;;;;;;-140.72;0.00;52151.44;5095541;28;19916;-73
2024/01/02 09:22:18;;;;;;;;;;;;;;;-140.72;0.00;52110.84;5095323;28;19978;-73
2024/01/02 09:24:44;;;;;;;;;;;;;;;-140.72;0.00;52173.75;5095675;28;20435;-73
2024/01/02 09:27:12;;;;;;;;;;;;;;;-140.72;0.00;52116.94;5097366;28;20008;-73
2024/01/02 09:29:37;;;;;;;;;;;;;;;-140.72;0.00;52137.22;5087161;28;19922;-72
2024/01/02 09:32:03;;;;;;;;;;;;;;;-140.72;0.00;52149.41;5101736;28;20003;-73
2024/01/02 09:34:28;;;;;;;;;;;;;;;-140.72;0.00;52094.63;5099733;28;19962;-73
2024/01/02 09:36:53;;;;;;;;;;;;;;;-140.72;0.00;52092.59;5097203;28;19916;-73
2024/01/02 09:39:18;;;;;;;;;;;;;;;-140.72;0.00;52076.34;5093407;28;19920;-73
2024/01/02 09:41:56;;;;;;;;;;;;;;;-140.72;0.00;52094.63;5082168;28;19927;-73
2024/01/02 09:44:46;;;;;;;;;;;;;;;-140.72;0.00;52145.34;5091042;28;19927;-73
2024/01/02 09:47:15;;;;;;;;;;;;;;;-140.72;0.00;52096.66;5090618;28;19920;-73
2024/01/02 09:50:00;;;;;;;;;;;;;;;-140.72;0.00;52110.84;5095241;28;20031;-73
2024/01/02 09:52:37;;;;;;;;;;;;;;;-140.72;0.00;52121.00;5082521;28;19920;-73
2024/01/02 09:55:14;;;;;;;;;;;;;;;-140.72;0.00;52108.81;5079361;28;19916;-73
2024/01/02 09:57:44;;;;;;;;;;;;;;;-140.72;0.00;52102.75;5086508;28;20300;-73
2024/01/02 10:00:20;;;;;;;;;;;;;;;-140.72;0.00;52102.75;5080824;28;19928;-73
2024/01/02 10:02:45;;;;;;;;;;;;;;;-140.72;0.00;52094.63;5081259;28;20366;-73
2024/01/02 10:05:13;;;;;;;;;;;;;;;-140.72;0.00;52070.28;5100702;28;19922;-73
2024/01/02 10:07:39;;;;;;;;;;;;;;;-140.72;0.00;52066.22;5114425;28;20051;-72
2024/01/02 10:10:24;;;;;;;;;;;;;;;-140.72;0.00;52080.41;5102124;28;19916;-72
2024/01/02 10:12:58;;;;;;;;;;;;;;;-140.72;0.00;52086.50;5089026;28;19954;-73
2024/01/02 10:15:42;;;;;;;;;;;;;;;-140.72;0.00;52068.25;5093913;28;19981;-73
2024/01/02 10:18:22;;;;;;;;;;;;;;;-140.72;0.00;52078.38;5108048;28;19923;-73
2024/01/02 10:21:06;;;;;;;;;;;;;;;-140.72;0.00;52074.34;5092760;28;19920;-73
2024/01/02 10:23:46;;;;;;;;;;;;;;;-140.72;0.00;52082.44;5100615;28;19924;-73
2024/01/02 10:26:12;;;;;;;;;;;;;;;-140.72;0.00;52047.97;5090742;28;19920;-73
2024/01/02 10:28:40;;;;;;;;;;;;;;;-140.72;0.00;52076.34;5093661;28;20253;-73
2024/01/02 10:31:14;;;;;;;;;;;;;;;-140.72;0.00;52137.22;5091238;28;19985;-73
2024/01/02 10:33:44;;;;;;;;;;;;;;;-140.72;0.00;52114.91;5091240;28;19920;-73
2024/01/02 10:36:10;;;;;;;;;;;;;;;-140.72;0.00;52068.25;5088377;28;19924;-73
2024/01/02 10:38:43;;;;;;;;;;;;;;;-140.72;0.00;52098.69;5101487;28;20098;-73
2024/01/02 10:41:08;;;;;;;;;;;;;;;-140.72;0.00;52078.38;5099352;28;19924;-76
2024/01/02 10:43:46;;;;;;;;;;;;;;;-140.72;0.00;52088.53;5075263;28;20365;-73
2024/01/02 10:46:21;;;;;;;;;;;;;;;-140.72;0.00;52116.94;5087854;28;19923;-73
2024/01/02 10:49:04;;;;;;;;;;;;;;;-140.72;0.00;52114.91;5090810;28;20290;-73
2024/01/02 10:51:40;;;;;;;;;;;;;;;-140.72;0.00;52086.50;5093224;28;19989;-72
2024/01/02 10:54:08;;;;;;;;;;;;;;;-140.72;0.00;52135.19;5089790;28;19923;-72
2024/01/02 10:56:37;;;;;;;;;;;;;;;-140.72;0.00;52116.94;5095405;28;19920;-72
2024/01/02 10:59:05;;;;;;;;;;;;;;;-140.72;0.00;52082.44;5073843;28;19916;-72
2024/01/02 11:01:32;;;;;;;;;;;;;;;-140.72;0.00;52058.09;5078815;28;19928;-73
2024/01/02 11:04:01;;;;;;;;;;;;;;;-140.72;0.00;52041.88;5083265;28;19921;-73
2024/01/02 11:06:26;;;;;;;;;;;;;;;-140.72;0.00;52064.19;5085464;28;19939;-73
2024/01/02 11:09:00;;;;;;;;;;;;;;;-140.72;0.00;52131.16;5092077;28;19946;-73
2024/01/02 11:11:27;;;;;;;;;;;;;;;-140.72;0.00;52092.59;5082749;28;19920;-71
2024/01/02 11:13:53;;;;;;;;;;;;;;;-140.72;0.00;52094.63;5091576;28;19920;-72
2024/01/02 11:16:20;;;;;;;;;;;;;;;-140.72;0.00;52108.81;5091755;28;20404;-73
2024/01/02 11:18:47;;;;;;;;;;;;;;;-140.72;0.00;52110.84;5081183;28;20267;-73
2024/01/02 11:21:12;;;;;;;;;;;;;;;-140.72;0.00;52114.91;5070288;28;19960;-75
2024/01/02 11:23:40;;;;;;;;;;;;;;;-140.72;0.00;52094.63;5072462;28;20429;-73
2024/01/02 11:26:15;;;;;;;;;;;;;;;-140.72;0.00;52127.09;5092524;28;19917;-72
2024/01/02 11:28:41;;;;;;;;;;;;;;;-140.72;0.00;52135.19;5090853;28;19920;-73
2024/01/02 11:31:08;;;;;;;;;;;;;;;-140.72;0.00;52066.22;5085756;28;19917;-73
2024/01/02 11:33:49;;;;;;;;;;;;;;;-140.72;0.00;52074.34;5073663;28;19923;-72
2024/01/02 11:36:26;;;;;;;;;;;;;;;-140.72;0.00;52114.91;5082417;28;19969;-72
2024/01/02 11:38:54;;;;;;;;;;;;;;;-140.72;0.00;52074.34;5075858;28;19916;-73
2024/01/02 11:41:36;;;;;;;;;;;;;;;-140.72;0.00;52090.56;5084385;28;19924;-72
2024/01/02 11:44:08;;;;;;;;;;;;;;;-140.72;0.00;52086.50;5079216;28;19965;-72
2024/01/02 11:46:35;;;;;;;;;;;;;;;-140.72;0.00;52098.69;5091989;28;20052;-72
2024/01/02 11:49:09;;;;;;;;;;;;;;;-140.72;0.00;52110.84;5095625;28;20293;-73
2024/01/02 11:51:35;;;;;;;;;;;;;;;-140.72;0.00;52161.56;5085491;28;19928;-73
2024/01/02 11:54:19;;;;;;;;;;;;;;;-140.72;0.00;52175.78;5099261;28;19935;-73
2024/01/02 11:56:45;;;;;;;;;;;;;;;-140.72;0.00;52080.41;5087532;28;20342;-72
2024/01/02 11:59:11;;;;;;;;;;;;;;;-140.72;0.00;52108.81;5081733;28;19920;-72
2024/01/02 12:01:39;;;;;;;;;;;;;;;-140.72;0.00;52086.50;5100028;28;19942;-73
2024/01/02 12:04:13;;;;;;;;;;;;;;;-140.72;0.00;52104.75;5089569;28;19935;-73
2024/01/02 12:06:48;;;;;;;;;;;;;;;-140.72;0.00;52110.84;5073339;28;19917;-72
2024/01/02 12:09:17;;;;;;;;;;;;;;;-140.72;0.00;52070.28;5097664;28;19920;-73
2024/01/02 12:11:54;;;;;;;;;;;;;;;-140.72;0.00;52088.53;5091426;28;19973;-72
2024/01/02 12:14:20;;;;;;;;;;;;;;;-140.72;0.00;52094.63;5092075;28;19932;-73
2024/01/02 12:16:45;;;;;;;;;;;;;;;-140.72;0.00;52106.78;5083211;28;19981;-73
2024/01/02 12:19:16;;;;;;;;;;;;;;;-140.72;0.00;52151.44;5091432;28;20017;-73
2024/01/02 12:21:42;;;;;;;;;;;;;;;-140.72;0.00;52112.88;5082155;28;19916;-72
2024/01/02 12:24:08;;;;;;;;;;;;;;;-140.72;0.00;52104.75;5093186;28;19950;-72
2024/01/02 12:26:36;;;;;;;;;;;;;;;-140.72;0.00;52169.69;5068829;28;19928;-73
2024/01/02 12:29:02;;;;;;;;;;;;;;;-140.72;0.00;52187.97;5099465;28;20431;-72
2024/01/02 12:31:38;;;;;;;;;;;;;;;-140.72;0.00;52159.56;5076881;28;19920;-72
2024/01/02 12:34:03;;;;;;;;;;;;;;;-140.72;0.00;52179.84;5093823;28;19923;-73